createdAt,value
2023-04-15T00:00:18.001Z,99318.50
2023-04-15T00:03:22.999Z,99314.66
2023-04-15T00:06:26.510Z,99313.44
2023-04-15T00:09:29.050Z,99319.56
2023-04-15T00:12:31.834Z,99320.75
2023-04-15T00:15:34.313Z,99322.41
2023-04-15T00:18:37.687Z,99325.50
2023-04-15T00:21:40.201Z,99316.53
2023-04-15T00:24:43.087Z,99315.53
2023-04-15T00:27:45.547Z,99318.16
2023-04-15T00:30:50.749Z,99322.47
2023-04-15T00:33:53.339Z,99322.47
2023-04-15T00:36:58.501Z,99315.13
2023-04-15T00:40:01.583Z,99322.44
2023-04-15T00:43:04.463Z,99323.06
2023-04-15T00:46:07.980Z,99322.25
2023-04-15T00:49:11.314Z,99318.78
2023-04-15T00:52:14.520Z,99318.78
2023-04-15T00:55:17.083Z,99311.44
2023-04-15T00:58:19.729Z,99305.75
2023-04-15T01:01:24.956Z,99304.50
2023-04-15T01:04:27.902Z,99314.50
2023-04-15T01:07:32.002Z,99303.09
2023-04-15T01:10:35.443Z,99305.34
2023-04-15T01:13:38.152Z,99308.41
2023-04-15T01:16:41.156Z,99298.41
2023-04-15T01:19:43.955Z,99309.00
2023-04-15T01:22:47.038Z,99300.25
2023-04-15T01:25:51.615Z,99294.31
2023-04-15T01:28:54.895Z,99295.97
2023-04-15T01:31:57.717Z,99292.09
2023-04-15T01:35:03.223Z,99292.06
2023-04-15T01:38:07.828Z,99290.22
2023-04-15T01:41:10.404Z,99291.66
2023-04-15T01:44:12.931Z,99303.28
2023-04-15T01:47:16.074Z,99308.59
2023-04-15T01:50:19.138Z,99303.50
2023-04-15T01:53:21.672Z,99314.72
2023-04-15T01:56:26.915Z,99313.69
2023-04-15T01:59:31.397Z,99324.72
2023-04-15T02:02:35.062Z,99321.28
2023-04-15T02:05:37.679Z,99324.53
2023-04-15T02:08:40.131Z,99321.69
2023-04-15T02:11:43.946Z,99312.88
2023-04-15T02:14:46.473Z,99308.81
2023-04-15T02:17:51.218Z,99304.13
2023-04-15T02:20:53.904Z,99309.81
2023-04-15T02:23:57.198Z,99308.38
2023-04-15T02:26:59.721Z,99308.78
2023-04-15T02:30:03.274Z,99306.56
2023-04-15T02:33:05.886Z,99306.34
2023-04-15T02:36:09.548Z,99313.06
2023-04-15T02:39:12.958Z,99304.72
2023-04-15T02:42:15.463Z,99311.03
2023-04-15T02:45:19.696Z,99306.78
2023-04-15T02:48:22.914Z,99299.00
2023-04-15T02:51:26.067Z,99302.28
2023-04-15T02:54:28.937Z,99303.28
2023-04-15T02:57:32.222Z,99312.91
2023-04-15T03:00:40.561Z,99314.09
2023-04-15T03:03:43.102Z,99321.28
2023-04-15T03:06:46.945Z,99321.47
2023-04-15T03:09:49.960Z,99318.44
2023-04-15T03:12:53.231Z,99325.16
2023-04-15T03:15:57.686Z,99316.78
2023-04-15T03:19:00.630Z,99317.78
2023-04-15T03:22:04.184Z,99306.19
2023-04-15T03:25:07.015Z,99307.16
2023-04-15T03:28:09.583Z,99301.88
2023-04-15T03:31:12.370Z,99298.81
2023-04-15T03:34:14.902Z,99300.44
2023-04-15T03:37:17.409Z,99308.22
2023-04-15T03:40:21.845Z,99298.00
2023-04-15T03:43:24.417Z,99306.16
2023-04-15T03:46:27.082Z,99306.56
2023-04-15T03:49:29.565Z,99308.22
2023-04-15T03:52:32.033Z,99311.09
2023-04-15T03:55:34.460Z,99311.88
2023-04-15T03:58:37.003Z,99310.63
2023-04-15T04:01:39.499Z,99316.38
2023-04-15T04:04:42.261Z,99316.38
2023-04-15T04:07:45.086Z,99315.38
2023-04-15T04:10:48.056Z,99318.19
2023-04-15T04:13:50.718Z,99311.69
2023-04-15T04:16:53.381Z,99309.03
2023-04-15T04:19:56.206Z,99304.50
2023-04-15T04:22:58.899Z,99302.66
2023-04-15T04:26:01.528Z,99303.28
2023-04-15T04:29:04.460Z,99309.81
2023-04-15T04:32:07.157Z,99306.13
2023-04-15T04:35:09.711Z,99305.53
2023-04-15T04:38:12.240Z,99313.09
2023-04-15T04:41:14.710Z,99307.97
2023-04-15T04:44:17.771Z,99305.13
2023-04-15T04:47:20.816Z,99308.19
2023-04-15T04:50:23.559Z,99312.25
2023-04-15T04:53:26.586Z,99310.44
2023-04-15T04:56:29.110Z,99318.38
2023-04-15T04:59:31.786Z,99309.34
2023-04-15T05:02:35.370Z,99310.72
2023-04-15T05:05:39.596Z,99305.16
2023-04-15T05:08:42.280Z,99308.59
2023-04-15T05:11:44.735Z,99309.75
2023-04-15T05:14:47.569Z,99303.16
2023-04-15T05:17:50.155Z,99308.22
2023-04-15T05:20:52.728Z,99302.00
2023-04-15T05:23:55.283Z,99299.72
2023-04-15T05:26:57.858Z,99300.50
2023-04-15T05:30:00.581Z,99291.97
2023-04-15T05:33:03.994Z,99305.78
2023-04-15T05:36:06.725Z,99303.81
2023-04-15T05:39:09.729Z,99306.06
2023-04-15T05:42:12.241Z,99308.22
2023-04-15T05:45:14.824Z,99316.31
2023-04-15T05:48:17.336Z,99311.09
2023-04-15T05:51:19.990Z,99326.41
2023-04-15T05:54:23.343Z,99311.69
2023-04-15T05:57:25.876Z,99315.97
2023-04-15T06:00:28.476Z,99313.84
2023-04-15T06:03:31.209Z,99327.03
2023-04-15T06:06:34.750Z,99337.47
2023-04-15T06:09:38.116Z,99339.97
2023-04-15T06:12:40.614Z,99345.97
2023-04-15T06:15:43.332Z,99344.66
2023-04-15T06:18:46.065Z,99349.06
2023-04-15T06:21:49.357Z,99351.75
2023-04-15T06:24:52.067Z,99352.69
2023-04-15T06:27:54.515Z,99348.75
2023-04-15T06:30:56.966Z,99353.63
2023-04-15T06:33:59.398Z,99356.53
2023-04-15T06:37:02.646Z,99360.03
2023-04-15T06:40:08.570Z,99356.69
2023-04-15T06:43:11.097Z,99362.53
2023-04-15T06:46:13.773Z,99364.44
2023-04-15T06:49:16.533Z,99365.25
2023-04-15T06:52:19.487Z,99364.31
2023-04-15T06:55:22.810Z,99373.25
2023-04-15T06:58:25.391Z,99376.03
2023-04-15T07:01:28.524Z,99381.00
2023-04-15T07:04:32.962Z,99376.47
2023-04-15T07:07:36.330Z,99386.56
2023-04-15T07:10:38.861Z,99386.94
2023-04-15T07:13:41.397Z,99385.91
2023-04-15T07:16:43.884Z,99381.81
2023-04-15T07:19:46.491Z,99378.19
2023-04-15T07:22:49.867Z,99392.63
2023-04-15T07:25:53.186Z,99386.13
2023-04-15T07:28:55.711Z,99383.84
2023-04-15T07:31:58.252Z,99386.88
2023-04-15T07:35:02.291Z,99386.31
2023-04-15T07:38:04.920Z,99398.13
2023-04-15T07:41:07.500Z,99392.16
2023-04-15T07:44:10.550Z,99395.16
2023-04-15T07:47:14.252Z,99394.84
2023-04-15T07:50:17.568Z,99394.59
2023-04-15T07:53:20.842Z,99394.63
2023-04-15T07:56:23.422Z,99402.16
2023-04-15T07:59:30.081Z,99402.53
2023-04-15T08:02:33.487Z,99401.53
2023-04-15T08:05:36.198Z,99401.94
2023-04-15T08:08:38.703Z,99398.81
2023-04-15T08:11:41.717Z,99407.00
2023-04-15T08:14:44.413Z,99396.69
2023-04-15T08:17:47.248Z,99400.34
2023-04-15T08:20:49.805Z,99405.16
2023-04-15T08:23:53.529Z,99407.00
2023-04-15T08:26:57.700Z,99400.28
2023-04-15T08:30:02.130Z,99402.38
2023-04-15T08:33:07.265Z,99409.97
2023-04-15T08:36:10.129Z,99413.81
2023-04-15T08:39:12.822Z,99407.06
2023-04-15T08:42:23.540Z,99405.19
2023-04-15T08:45:26.398Z,99407.84
2023-04-15T08:48:32.639Z,99405.63
2023-04-15T08:51:35.623Z,99406.88
2023-04-15T08:54:38.832Z,99400.81
2023-04-15T08:57:41.614Z,99408.94
2023-04-15T09:00:44.276Z,99410.66
2023-04-15T09:03:50.556Z,99410.59
2023-04-15T09:06:53.183Z,99406.72
2023-04-15T09:09:55.906Z,99402.28
2023-04-15T09:12:58.915Z,99405.69
2023-04-15T09:16:04.530Z,99399.09
2023-04-15T09:19:27.959Z,99407.00
2023-04-15T09:22:33.741Z,99408.38
2023-04-15T09:25:36.649Z,99410.66
2023-04-15T09:28:43.591Z,99408.50
2023-04-15T09:31:47.089Z,99409.72
2023-04-15T09:34:49.821Z,99402.50
2023-04-15T09:37:53.589Z,99403.53
2023-04-15T09:40:56.192Z,99404.47
2023-04-15T09:43:58.847Z,99399.81
2023-04-15T09:47:02.030Z,99397.41
2023-04-15T09:50:04.883Z,99397.69
2023-04-15T09:53:09.992Z,99395.63
2023-04-15T09:56:12.895Z,99400.03
2023-04-15T09:59:15.712Z,99408.16
2023-04-15T10:02:21.130Z,99391.00
2023-04-15T10:05:24.096Z,99388.00
2023-04-15T10:08:29.839Z,99399.53
2023-04-15T10:11:34.325Z,99405.47
2023-04-15T10:14:38.965Z,99417.34
2023-04-15T10:17:45.430Z,99411.13
2023-04-15T10:20:50.557Z,99405.69
2023-04-15T10:23:54.253Z,99408.44
2023-04-15T10:26:59.751Z,99405.44
2023-04-15T10:30:04.234Z,99403.03
2023-04-15T10:33:10.339Z,99399.06
2023-04-15T10:36:14.148Z,99403.66
2023-04-15T10:39:34.755Z,99404.94
2023-04-15T10:42:37.821Z,99397.34
2023-04-15T10:45:45.028Z,99389.38
2023-04-15T10:48:49.893Z,99397.06
2023-04-15T10:51:57.478Z,99405.47
2023-04-15T10:55:24.518Z,99417.88
2023-04-15T10:58:42.357Z,99425.16
2023-04-15T11:02:00.262Z,99420.56
2023-04-15T11:05:03.891Z,99421.75
2023-04-15T11:08:06.755Z,99430.41
2023-04-15T11:11:09.319Z,99433.38
2023-04-15T11:14:16.341Z,99436.66
2023-04-15T11:17:28.880Z,99429.91
2023-04-15T11:20:32.519Z,99429.16
2023-04-15T11:23:49.643Z,99433.06
2023-04-15T11:26:57.711Z,99433.44
2023-04-15T11:30:00.369Z,99453.13
2023-04-15T11:33:05.941Z,99456.19
2023-04-15T11:36:08.408Z,99450.91
2023-04-15T11:39:11.100Z,99452.63
2023-04-15T11:42:18.439Z,99446.88
2023-04-15T11:45:21.268Z,99444.16
2023-04-15T11:48:27.612Z,99447.94
2023-04-15T11:51:34.050Z,99441.34
2023-04-15T11:54:37.580Z,99448.28
2023-04-15T11:57:40.163Z,99452.19
2023-04-15T12:00:57.759Z,99452.31
2023-04-15T12:04:01.800Z,99453.03
2023-04-15T12:07:07.728Z,99453.66
2023-04-15T12:10:10.675Z,99453.41
2023-04-15T12:13:13.395Z,99451.19
2023-04-15T12:16:20.086Z,99459.16
2023-04-15T12:19:24.777Z,99458.34
2023-04-15T12:22:27.333Z,99460.06
2023-04-15T12:25:35.974Z,99456.81
2023-04-15T12:28:41.786Z,99458.09
2023-04-15T12:31:52.273Z,99454.66
2023-04-15T12:34:55.375Z,99460.09
2023-04-15T12:37:57.868Z,99470.38
2023-04-15T12:41:00.475Z,99473.31
2023-04-15T12:44:04.139Z,99463.06
2023-04-15T12:47:07.916Z,99472.78
2023-04-15T12:50:10.733Z,99472.44
2023-04-15T12:53:13.881Z,99475.13
2023-04-15T12:56:17.565Z,99474.69
2023-04-15T12:59:21.243Z,99475.97
2023-04-15T13:02:25.898Z,99482.34
2023-04-15T13:05:28.493Z,99476.97
2023-04-15T13:08:31.558Z,99483.81
2023-04-15T13:11:34.352Z,99493.31
2023-04-15T13:14:37.268Z,99496.94
2023-04-15T13:17:39.890Z,99497.94
2023-04-15T13:20:42.526Z,99490.91
2023-04-15T13:23:45.050Z,99487.72
2023-04-15T13:26:50.366Z,99493.47
2023-04-15T13:29:54.594Z,99492.22
2023-04-15T13:32:57.243Z,99482.31
2023-04-15T13:35:59.775Z,99486.44
2023-04-15T13:39:03.280Z,99494.00
2023-04-15T13:42:06.064Z,99496.81
2023-04-15T13:45:09.939Z,99500.75
2023-04-15T13:48:12.474Z,99496.44
2023-04-15T13:51:14.975Z,99495.31
2023-04-15T13:54:17.528Z,99507.19
2023-04-15T13:57:20.147Z,99516.47
2023-04-15T14:00:22.823Z,99505.47
2023-04-15T14:03:26.458Z,99514.19
2023-04-15T14:06:31.703Z,99518.84
2023-04-15T14:09:35.558Z,99516.03
2023-04-15T14:12:38.403Z,99519.69
2023-04-15T14:15:41.727Z,99516.91
2023-04-15T14:18:44.824Z,99523.91
2023-04-15T14:21:47.595Z,99531.00
2023-04-15T14:24:53.156Z,99533.22
2023-04-15T14:27:55.903Z,99519.59
2023-04-15T14:30:58.918Z,99522.84
2023-04-15T14:34:01.610Z,99525.81
2023-04-15T14:37:05.121Z,99528.03
2023-04-15T14:40:08.402Z,99534.19
2023-04-15T14:43:11.381Z,99543.09
2023-04-15T14:46:14.652Z,99540.50
2023-04-15T14:49:17.249Z,99546.34
2023-04-15T14:52:20.014Z,99555.41
2023-04-15T14:55:22.862Z,99551.13
2023-04-15T14:58:25.496Z,99550.88
2023-04-15T15:01:28.412Z,99548.88
2023-04-15T15:04:33.483Z,99540.59
2023-04-15T15:07:40.918Z,99550.97
2023-04-15T15:10:49.339Z,99547.97
2023-04-15T15:13:52.336Z,99554.13
2023-04-15T15:16:54.915Z,99554.81
2023-04-15T15:19:57.683Z,99549.47
2023-04-15T15:23:00.954Z,99565.06
2023-04-15T15:26:03.486Z,99569.41
2023-04-15T15:29:06.357Z,99572.41
2023-04-15T15:32:09.405Z,99574.38
2023-04-15T15:35:11.851Z,99573.94
2023-04-15T15:38:15.052Z,99582.56
2023-04-15T15:41:17.750Z,99585.72
2023-04-15T15:44:20.237Z,99578.34
2023-04-15T15:47:23.184Z,99591.28
2023-04-15T15:50:25.880Z,99591.16
2023-04-15T15:53:28.670Z,99597.44
2023-04-15T15:56:31.455Z,99595.91
2023-04-15T15:59:34.448Z,99600.63
2023-04-15T16:03:04.303Z,99605.75
2023-04-15T16:06:00.198Z,99608.41
2023-04-15T16:09:03.278Z,99618.63
2023-04-15T16:12:06.074Z,99627.47
2023-04-15T16:15:10.879Z,99632.84
2023-04-15T16:18:13.428Z,99630.09
2023-04-15T16:21:16.128Z,99636.84
2023-04-15T16:24:18.953Z,99631.06
2023-04-15T16:27:21.418Z,99639.84
2023-04-15T16:30:24.243Z,99640.16
2023-04-15T16:33:26.860Z,99641.28
2023-04-15T16:36:29.517Z,99653.59
2023-04-15T16:39:32.498Z,99661.78
2023-04-15T16:42:35.023Z,99655.88
2023-04-15T16:45:38.213Z,99664.84
2023-04-15T16:48:40.712Z,99667.66
2023-04-15T16:51:43.454Z,99674.44
2023-04-15T16:54:46.093Z,99673.69
2023-04-15T16:58:02.473Z,99671.41
2023-04-15T17:01:06.378Z,99678.59
2023-04-15T17:04:09.256Z,99678.72
2023-04-15T17:07:12.093Z,99683.00
2023-04-15T17:10:14.700Z,99682.25
2023-04-15T17:13:17.377Z,99690.28
2023-04-15T17:16:20.276Z,99697.22
2023-04-15T17:19:23.254Z,99703.84
2023-04-15T17:22:26.058Z,99699.91
2023-04-15T17:25:28.514Z,99708.59
2023-04-15T17:28:31.161Z,99707.63
2023-04-15T17:31:33.883Z,99704.97
2023-04-15T17:34:50.191Z,99706.47
2023-04-15T17:37:53.775Z,99715.13
2023-04-15T17:40:56.266Z,99717.19
2023-04-15T17:43:59.001Z,99725.84
2023-04-15T17:47:02.471Z,99725.84
2023-04-15T17:50:05.840Z,99726.69
2023-04-15T17:53:09.129Z,99725.06
2023-04-15T17:56:11.886Z,99729.63
2023-04-15T17:59:16.579Z,99748.06
2023-04-15T18:02:19.583Z,99753.84
2023-04-15T18:05:22.337Z,99755.69
2023-04-15T18:08:25.302Z,99758.97
2023-04-15T18:11:28.197Z,99763.28
2023-04-15T18:14:34.659Z,99769.25
2023-04-15T18:17:38.027Z,99767.59
2023-04-15T18:20:40.599Z,99776.00
2023-04-15T18:23:44.019Z,99782.97
2023-04-15T18:26:48.858Z,99783.97
2023-04-15T18:29:52.072Z,99781.28
2023-04-15T18:32:54.763Z,99776.75
2023-04-15T18:35:57.737Z,99791.09
2023-04-15T18:39:00.481Z,99789.63
2023-04-15T18:42:03.476Z,99795.16
2023-04-15T18:45:07.738Z,99804.78
2023-04-15T18:48:10.412Z,99807.66
2023-04-15T18:51:13.121Z,99820.31
2023-04-15T18:54:16.626Z,99814.97
2023-04-15T18:57:23.316Z,99823.19
2023-04-15T19:00:36.463Z,99833.63
2023-04-15T19:03:39.725Z,99837.09
2023-04-15T19:06:42.870Z,99837.09
2023-04-15T19:09:46.714Z,99838.31
2023-04-15T19:12:49.537Z,99844.25
2023-04-15T19:15:52.640Z,99843.63
2023-04-15T19:18:55.565Z,99852.81
2023-04-15T19:21:58.236Z,99858.31
2023-04-15T19:25:01.225Z,99863.41
2023-04-15T19:28:04.137Z,99865.41
2023-04-15T19:31:07.832Z,99867.03
2023-04-15T19:34:11.206Z,99862.13
2023-04-15T19:37:16.362Z,99872.94
2023-04-15T19:40:19.264Z,99877.84
2023-04-15T19:43:22.930Z,99869.81
2023-04-15T19:46:26.949Z,99877.97
2023-04-15T19:49:30.435Z,99884.97
2023-04-15T19:52:34.449Z,99889.25
2023-04-15T19:55:37.376Z,99883.09
2023-04-15T19:58:40.857Z,99879.84
2023-04-15T20:01:43.489Z,99885.63
2023-04-15T20:04:46.396Z,99890.09
2023-04-15T20:07:52.346Z,99893.75
2023-04-15T20:10:56.868Z,99893.50
2023-04-15T20:13:59.607Z,99899.84
2023-04-15T20:17:02.544Z,99908.91
2023-04-15T20:20:07.961Z,99903.38
2023-04-15T20:23:11.347Z,99912.16
2023-04-15T20:26:13.866Z,99918.38
2023-04-15T20:29:16.576Z,99914.88
2023-04-15T20:32:19.268Z,99919.81
2023-04-15T20:35:22.190Z,99930.06
2023-04-15T20:38:25.021Z,99924.34
2023-04-15T20:41:29.128Z,99922.16
2023-04-15T20:44:32.001Z,99915.72
2023-04-15T20:47:34.707Z,99924.09
2023-04-15T20:50:38.974Z,99929.41
2023-04-15T20:53:42.330Z,99930.88
2023-04-15T20:56:44.948Z,99932.06
2023-04-15T20:59:47.864Z,99934.16
2023-04-15T21:02:51.185Z,99934.75
2023-04-15T21:05:53.747Z,99937.78
2023-04-15T21:08:56.880Z,99949.06
2023-04-15T21:12:01.550Z,99947.63
2023-04-15T21:15:05.446Z,99938.44
2023-04-15T21:18:08.008Z,99943.16
2023-04-15T21:21:11.675Z,99947.69
2023-04-15T21:24:14.323Z,99960.81
2023-04-15T21:27:16.740Z,99955.53
2023-04-15T21:30:19.339Z,99967.00
2023-04-15T21:33:21.993Z,99962.09
2023-04-15T21:36:24.556Z,99968.94
2023-04-15T21:39:30.430Z,99965.59
2023-04-15T21:42:32.975Z,99983.78
2023-04-15T21:45:36.640Z,99989.09
2023-04-15T21:48:39.383Z,99981.56
2023-04-15T21:51:41.998Z,99991.94
2023-04-15T21:54:44.570Z,99991.47
2023-04-15T21:57:48.358Z,99996.75
2023-04-15T22:00:52.441Z,99992.66
2023-04-15T22:03:55.260Z,99996.94
2023-04-15T22:07:01.730Z,99999.59
2023-04-15T22:10:04.787Z,100000.19
2023-04-15T22:13:11.096Z,100001.03
2023-04-15T22:16:13.633Z,100000.38
2023-04-15T22:19:16.175Z,100004.25
2023-04-15T22:22:19.045Z,100003.81
2023-04-15T22:25:22.546Z,100008.50
2023-04-15T22:28:25.552Z,100003.75
2023-04-15T22:31:28.195Z,100007.66
2023-04-15T22:34:31.014Z,100014.97
2023-04-15T22:37:33.598Z,100010.03
2023-04-15T22:40:36.123Z,100011.44
2023-04-15T22:43:38.606Z,100025.66
2023-04-15T22:46:41.332Z,100016.88
2023-04-15T22:49:44.973Z,100018.44
2023-04-15T22:52:48.360Z,100008.75
2023-04-15T22:55:51.765Z,100006.09
2023-04-15T22:58:54.526Z,100014.00
2023-04-15T23:01:59.472Z,100017.50
2023-04-15T23:05:06.291Z,100017.88
2023-04-15T23:08:15.448Z,100020.34
2023-04-15T23:11:18.553Z,100026.91
2023-04-15T23:14:21.450Z,100023.25
2023-04-15T23:17:24.013Z,100024.31
2023-04-15T23:20:26.559Z,100015.66
2023-04-15T23:23:29.048Z,100023.63
2023-04-15T23:26:31.738Z,100018.31
2023-04-15T23:29:34.254Z,100018.63
2023-04-15T23:32:36.894Z,100020.50
2023-04-15T23:35:39.843Z,100018.69
2023-04-15T23:38:42.412Z,100027.91
2023-04-15T23:41:44.996Z,100025.22
2023-04-15T23:44:47.597Z,100023.16
2023-04-15T23:47:50.140Z,100028.66
2023-04-15T23:50:52.663Z,100035.41
2023-04-15T23:53:55.215Z,100030.34
2023-04-15T23:56:57.703Z,100032.94
